sensor_id;sensor_type;location;lat;lon;timestamp;temperature;humidity
1812;DHT22;904;47.814;11.134;2022-12-11T00:00:22;1.70;89.20
1812;DHT22;904;47.814;11.134;2022-12-11T00:02:50;1.70;89.30
1812;DHT22;904;47.814;11.134;2022-12-11T00:05:20;1.70;89.00
1812;DHT22;904;47.814;11.134;2022-12-11T00:07:48;1.70;89.00
1812;DHT22;904;47.814;11.134;2022-12-11T00:10:16;1.70;88.80
1812;DHT22;904;47.814;11.134;2022-12-11T00:12:43;1.70;88.20
1812;DHT22;904;47.814;11.134;2022-12-11T00:15:10;1.60;87.70
1812;DHT22;904;47.814;11.134;2022-12-11T00:17:38;1.70;87.70
1812;DHT22;904;47.814;11.134;2022-12-11T00:20:06;1.60;87.30
1812;DHT22;904;47.814;11.134;2022-12-11T00:22:39;1.60;87.40
1812;DHT22;904;47.814;11.134;2022-12-11T00:25:07;1.60;87.60
1812;DHT22;904;47.814;11.134;2022-12-11T00:27:35;1.60;87.60
1812;DHT22;904;47.814;11.134;2022-12-11T00:30:03;1.60;87.20
1812;DHT22;904;47.814;11.134;2022-12-11T00:32:33;1.60;87.30
1812;DHT22;904;47.814;11.134;2022-12-11T00:35:00;1.50;87.10
1812;DHT22;904;47.814;11.134;2022-12-11T00:37:28;1.50;87.10
1812;DHT22;904;47.814;11.134;2022-12-11T00:39:57;1.50;87.50
1812;DHT22;904;47.814;11.134;2022-12-11T00:42:24;1.50;87.70
1812;DHT22;904;47.814;11.134;2022-12-11T00:44:51;1.50;87.70
1812;DHT22;904;47.814;11.134;2022-12-11T00:47:20;1.50;87.70
1812;DHT22;904;47.814;11.134;2022-12-11T00:49:48;1.50;87.30
1812;DHT22;904;47.814;11.134;2022-12-11T00:52:15;1.50;87.50
1812;DHT22;904;47.814;11.134;2022-12-11T00:54:43;1.50;88.30
1812;DHT22;904;47.814;11.134;2022-12-11T00:57:12;1.50;87.10
1812;DHT22;904;47.814;11.134;2022-12-11T00:59:39;1.50;87.20
1812;DHT22;904;47.814;11.134;2022-12-11T01:02:06;1.50;87.30
1812;DHT22;904;47.814;11.134;2022-12-11T01:04:35;1.40;87.10
1812;DHT22;904;47.814;11.134;2022-12-11T01:07:02;1.40;86.80
1812;DHT22;904;47.814;11.134;2022-12-11T01:09:29;1.40;86.60
1812;DHT22;904;47.814;11.134;2022-12-11T01:12:15;1.40;86.50
1812;DHT22;904;47.814;11.134;2022-12-11T01:14:43;1.40;86.50
1812;DHT22;904;47.814;11.134;2022-12-11T01:17:10;1.40;86.30
1812;DHT22;904;47.814;11.134;2022-12-11T01:19:37;1.40;86.40
1812;DHT22;904;47.814;11.134;2022-12-11T01:22:05;1.30;86.20
1812;DHT22;904;47.814;11.134;2022-12-11T01:24:32;1.30;86.40
1812;DHT22;904;47.814;11.134;2022-12-11T01:27:00;1.30;86.60
1812;DHT22;904;47.814;11.134;2022-12-11T01:29:28;1.30;86.50
1812;DHT22;904;47.814;11.134;2022-12-11T01:31:56;1.30;86.20
1812;DHT22;904;47.814;11.134;2022-12-11T01:34:23;1.30;86.70
1812;DHT22;904;47.814;11.134;2022-12-11T01:36:51;1.30;86.60
1812;DHT22;904;47.814;11.134;2022-12-11T01:39:19;1.30;86.10
1812;DHT22;904;47.814;11.134;2022-12-11T01:41:46;1.20;86.40
1812;DHT22;904;47.814;11.134;2022-12-11T01:47:20;1.20;87.00
1812;DHT22;904;47.814;11.134;2022-12-11T01:49:47;1.20;87.00
1812;DHT22;904;47.814;11.134;2022-12-11T01:52:19;1.20;86.70
1812;DHT22;904;47.814;11.134;2022-12-11T01:54:47;1.20;86.20
1812;DHT22;904;47.814;11.134;2022-12-11T01:57:16;1.20;86.10
1812;DHT22;904;47.814;11.134;2022-12-11T01:59:45;1.20;86.50
1812;DHT22;904;47.814;11.134;2022-12-11T02:02:17;1.10;86.80
1812;DHT22;904;47.814;11.134;2022-12-11T02:04:47;1.10;87.00
1812;DHT22;904;47.814;11.134;2022-12-11T02:07:15;1.10;87.00
1812;DHT22;904;47.814;11.134;2022-12-11T02:09:44;1.10;86.60
1812;DHT22;904;47.814;11.134;2022-12-11T02:12:17;1.00;86.50
1812;DHT22;904;47.814;11.134;2022-12-11T02:14:56;1.00;86.70
1812;DHT22;904;47.814;11.134;2022-12-11T02:17:32;0.90;86.90
1812;DHT22;904;47.814;11.134;2022-12-11T02:20:09;0.90;87.50
1812;DHT22;904;47.814;11.134;2022-12-11T02:23:08;0.90;87.10
1812;DHT22;904;47.814;11.134;2022-12-11T02:25:47;0.80;86.50
1812;DHT22;904;47.814;11.134;2022-12-11T02:28:22;0.70;86.30
1812;DHT22;904;47.814;11.134;2022-12-11T02:30:56;0.70;87.00
1812;DHT22;904;47.814;11.134;2022-12-11T02:33:31;0.70;87.30
1812;DHT22;904;47.814;11.134;2022-12-11T02:36:00;0.70;87.30
1812;DHT22;904;47.814;11.134;2022-12-11T02:38:32;0.70;87.20
1812;DHT22;904;47.814;11.134;2022-12-11T02:41:02;0.80;87.60
1812;DHT22;904;47.814;11.134;2022-12-11T02:43:33;0.80;87.60
1812;DHT22;904;47.814;11.134;2022-12-11T02:46:04;0.80;87.90
1812;DHT22;904;47.814;11.134;2022-12-11T02:48:33;0.80;87.50
1812;DHT22;904;47.814;11.134;2022-12-11T02:51:03;0.80;87.90
1812;DHT22;904;47.814;11.134;2022-12-11T02:53:34;0.80;87.20
1812;DHT22;904;47.814;11.134;2022-12-11T02:56:09;0.90;87.90
1812;DHT22;904;47.814;11.134;2022-12-11T02:58:44;0.90;88.10
1812;DHT22;904;47.814;11.134;2022-12-11T03:01:12;0.90;87.90
1812;DHT22;904;47.814;11.134;2022-12-11T03:03:40;1.00;88.10
1812;DHT22;904;47.814;11.134;2022-12-11T03:06:09;1.00;87.90
1812;DHT22;904;47.814;11.134;2022-12-11T03:08:39;1.00;87.50
1812;DHT22;904;47.814;11.134;2022-12-11T03:11:09;1.10;87.00
1812;DHT22;904;47.814;11.134;2022-12-11T03:13:39;1.10;86.70
1812;DHT22;904;47.814;11.134;2022-12-11T03:16:13;1.10;86.70
1812;DHT22;904;47.814;11.134;2022-12-11T03:18:47;1.10;86.20
1812;DHT22;904;47.814;11.134;2022-12-11T03:21:21;1.10;86.30
1812;DHT22;904;47.814;11.134;2022-12-11T03:23:56;1.10;86.20
1812;DHT22;904;47.814;11.134;2022-12-11T03:26:27;1.10;86.10
1812;DHT22;904;47.814;11.134;2022-12-11T03:28:59;1.20;85.70
1812;DHT22;904;47.814;11.134;2022-12-11T03:31:29;1.20;85.60
1812;DHT22;904;47.814;11.134;2022-12-11T03:34:01;1.20;85.70
1812;DHT22;904;47.814;11.134;2022-12-11T03:36:32;1.20;85.60
1812;DHT22;904;47.814;11.134;2022-12-11T03:39:04;1.20;85.20
1812;DHT22;904;47.814;11.134;2022-12-11T03:41:33;1.20;85.00
1812;DHT22;904;47.814;11.134;2022-12-11T03:44:03;1.20;85.00
1812;DHT22;904;47.814;11.134;2022-12-11T03:46:32;1.30;85.00
1812;DHT22;904;47.814;11.134;2022-12-11T03:49:02;1.30;84.40
1812;DHT22;904;47.814;11.134;2022-12-11T03:51:32;1.30;84.50
1812;DHT22;904;47.814;11.134;2022-12-11T03:54:00;1.30;84.90
1812;DHT22;904;47.814;11.134;2022-12-11T03:56:31;1.20;84.90
1812;DHT22;904;47.814;11.134;2022-12-11T03:58:58;1.30;84.80
1812;DHT22;904;47.814;11.134;2022-12-11T04:01:27;1.30;84.20
1812;DHT22;904;47.814;11.134;2022-12-11T04:03:55;1.30;84.30
1812;DHT22;904;47.814;11.134;2022-12-11T04:06:22;1.30;84.50
1812;DHT22;904;47.814;11.134;2022-12-11T04:08:49;1.30;84.70
1812;DHT22;904;47.814;11.134;2022-12-11T04:11:16;1.30;84.50
1812;DHT22;904;47.814;11.134;2022-12-11T04:14:05;1.30;84.70
1812;DHT22;904;47.814;11.134;2022-12-11T04:16:51;1.30;85.00
1812;DHT22;904;47.814;11.134;2022-12-11T04:19:21;1.30;85.20
1812;DHT22;904;47.814;11.134;2022-12-11T04:22:06;1.20;85.20
1812;DHT22;904;47.814;11.134;2022-12-11T04:24:53;1.20;84.40
1812;DHT22;904;47.814;11.134;2022-12-11T04:27:20;1.20;85.20
1812;DHT22;904;47.814;11.134;2022-12-11T04:30:18;1.20;85.00
1812;DHT22;904;47.814;11.134;2022-12-11T04:32:48;1.20;85.60
1812;DHT22;904;47.814;11.134;2022-12-11T04:35:16;1.20;85.60
1812;DHT22;904;47.814;11.134;2022-12-11T04:37:43;1.20;85.60
1812;DHT22;904;47.814;11.134;2022-12-11T04:40:12;1.20;85.80
1812;DHT22;904;47.814;11.134;2022-12-11T04:42:41;1.20;86.00
1812;DHT22;904;47.814;11.134;2022-12-11T04:45:09;1.20;86.00
1812;DHT22;904;47.814;11.134;2022-12-11T04:47:38;1.20;85.60
1812;DHT22;904;47.814;11.134;2022-12-11T04:50:09;1.20;85.80
1812;DHT22;904;47.814;11.134;2022-12-11T04:52:37;1.20;85.90
1812;DHT22;904;47.814;11.134;2022-12-11T04:55:05;1.20;85.80
1812;DHT22;904;47.814;11.134;2022-12-11T04:57:33;1.20;85.60
1812;DHT22;904;47.814;11.134;2022-12-11T05:00:01;1.20;85.80
1812;DHT22;904;47.814;11.134;2022-12-11T05:02:29;1.20;85.80
1812;DHT22;904;47.814;11.134;2022-12-11T05:04:56;1.20;86.00
1812;DHT22;904;47.814;11.134;2022-12-11T05:07:25;1.20;86.00
1812;DHT22;904;47.814;11.134;2022-12-11T05:09:53;1.20;85.70
1812;DHT22;904;47.814;11.134;2022-12-11T05:12:20;1.20;85.30
1812;DHT22;904;47.814;11.134;2022-12-11T05:14:51;1.20;84.80
1812;DHT22;904;47.814;11.134;2022-12-11T05:17:18;1.20;84.70
1812;DHT22;904;47.814;11.134;2022-12-11T05:19:46;1.10;84.30
1812;DHT22;904;47.814;11.134;2022-12-11T05:22:15;1.10;84.20
1812;DHT22;904;47.814;11.134;2022-12-11T05:24:45;1.10;83.90
1812;DHT22;904;47.814;11.134;2022-12-11T05:27:12;1.10;84.10
1812;DHT22;904;47.814;11.134;2022-12-11T05:29:40;1.10;84.10
1812;DHT22;904;47.814;11.134;2022-12-11T05:32:07;1.10;84.00
1812;DHT22;904;47.814;11.134;2022-12-11T05:34:35;1.10;83.90
1812;DHT22;904;47.814;11.134;2022-12-11T05:37:02;1.10;83.70
1812;DHT22;904;47.814;11.134;2022-12-11T05:39:39;1.00;83.30
1812;DHT22;904;47.814;11.134;2022-12-11T05:42:10;1.00;83.40
1812;DHT22;904;47.814;11.134;2022-12-11T05:44:38;0.90;83.10
1812;DHT22;904;47.814;11.134;2022-12-11T05:47:05;0.90;83.10
1812;DHT22;904;47.814;11.134;2022-12-11T05:49:33;0.90;83.30
1812;DHT22;904;47.814;11.134;2022-12-11T05:52:00;0.90;83.40
1812;DHT22;904;47.814;11.134;2022-12-11T05:54:28;0.80;83.20
1812;DHT22;904;47.814;11.134;2022-12-11T05:56:55;0.80;83.00
1812;DHT22;904;47.814;11.134;2022-12-11T05:59:24;0.80;83.10
1812;DHT22;904;47.814;11.134;2022-12-11T06:01:52;0.70;82.60
1812;DHT22;904;47.814;11.134;2022-12-11T06:04:19;0.70;82.70
1812;DHT22;904;47.814;11.134;2022-12-11T06:06:47;0.70;82.40
1812;DHT22;904;47.814;11.134;2022-12-11T06:09:19;0.60;82.30
1812;DHT22;904;47.814;11.134;2022-12-11T06:11:49;0.60;82.50
1812;DHT22;904;47.814;11.134;2022-12-11T06:14:17;0.60;82.60
1812;DHT22;904;47.814;11.134;2022-12-11T06:16:46;0.50;82.90
1812;DHT22;904;47.814;11.134;2022-12-11T06:19:15;0.50;82.80
1812;DHT22;904;47.814;11.134;2022-12-11T06:21:43;0.50;82.70
1812;DHT22;904;47.814;11.134;2022-12-11T06:24:15;0.50;82.70
1812;DHT22;904;47.814;11.134;2022-12-11T06:26:43;0.50;82.70
1812;DHT22;904;47.814;11.134;2022-12-11T06:29:10;0.40;82.30
1812;DHT22;904;47.814;11.134;2022-12-11T06:31:38;0.40;82.40
1812;DHT22;904;47.814;11.134;2022-12-11T06:34:07;0.30;82.80
1812;DHT22;904;47.814;11.134;2022-12-11T06:36:35;0.40;83.50
1812;DHT22;904;47.814;11.134;2022-12-11T06:39:03;0.40;83.80
1812;DHT22;904;47.814;11.134;2022-12-11T06:41:30;0.40;83.60
1812;DHT22;904;47.814;11.134;2022-12-11T06:43:58;0.40;83.20
1812;DHT22;904;47.814;11.134;2022-12-11T06:46:25;0.40;83.10
1812;DHT22;904;47.814;11.134;2022-12-11T06:48:53;0.30;82.80
1812;DHT22;904;47.814;11.134;2022-12-11T06:51:22;0.30;82.40
1812;DHT22;904;47.814;11.134;2022-12-11T06:53:50;0.30;82.40
1812;DHT22;904;47.814;11.134;2022-12-11T06:56:19;0.30;82.90
1812;DHT22;904;47.814;11.134;2022-12-11T06:58:47;0.30;83.40
1812;DHT22;904;47.814;11.134;2022-12-11T07:01:17;0.30;83.10
1812;DHT22;904;47.814;11.134;2022-12-11T07:03:45;0.30;83.70
1812;DHT22;904;47.814;11.134;2022-12-11T07:06:12;0.30;82.70
1812;DHT22;904;47.814;11.134;2022-12-11T07:08:41;0.30;82.60
1812;DHT22;904;47.814;11.134;2022-12-11T07:11:10;0.40;82.40
1812;DHT22;904;47.814;11.134;2022-12-11T07:13:38;0.40;82.20
1812;DHT22;904;47.814;11.134;2022-12-11T07:16:08;0.40;82.30
1812;DHT22;904;47.814;11.134;2022-12-11T07:18:37;0.40;82.00
1812;DHT22;904;47.814;11.134;2022-12-11T07:21:06;0.40;81.60
1812;DHT22;904;47.814;11.134;2022-12-11T07:23:34;0.50;81.00
1812;DHT22;904;47.814;11.134;2022-12-11T07:26:06;0.50;80.90
1812;DHT22;904;47.814;11.134;2022-12-11T07:28:34;0.50;80.60
1812;DHT22;904;47.814;11.134;2022-12-11T07:31:04;0.50;80.80
1812;DHT22;904;47.814;11.134;2022-12-11T07:33:34;0.50;80.60
1812;DHT22;904;47.814;11.134;2022-12-11T07:36:04;0.50;80.60
1812;DHT22;904;47.814;11.134;2022-12-11T07:38:36;0.50;80.10
1812;DHT22;904;47.814;11.134;2022-12-11T07:41:07;0.50;79.60
1812;DHT22;904;47.814;11.134;2022-12-11T07:43:35;0.50;79.90
1812;DHT22;904;47.814;11.134;2022-12-11T07:46:04;0.50;80.10
1812;DHT22;904;47.814;11.134;2022-12-11T07:48:36;0.50;80.10
1812;DHT22;904;47.814;11.134;2022-12-11T07:51:08;0.60;80.10
1812;DHT22;904;47.814;11.134;2022-12-11T07:53:35;0.60;80.00
1812;DHT22;904;47.814;11.134;2022-12-11T07:56:05;0.60;79.60
1812;DHT22;904;47.814;11.134;2022-12-11T07:58:33;0.70;79.10
1812;DHT22;904;47.814;11.134;2022-12-11T08:01:03;0.60;79.20
1812;DHT22;904;47.814;11.134;2022-12-11T08:03:31;0.60;79.10
1812;DHT22;904;47.814;11.134;2022-12-11T08:06:03;0.70;79.30
1812;DHT22;904;47.814;11.134;2022-12-11T08:08:37;0.70;79.40
1812;DHT22;904;47.814;11.134;2022-12-11T08:11:14;0.80;79.20
1812;DHT22;904;47.814;11.134;2022-12-11T08:13:45;0.90;78.00
1812;DHT22;904;47.814;11.134;2022-12-11T08:16:13;0.90;78.20
1812;DHT22;904;47.814;11.134;2022-12-11T08:18:42;1.00;77.70
1812;DHT22;904;47.814;11.134;2022-12-11T08:21:11;1.10;77.50
1812;DHT22;904;47.814;11.134;2022-12-11T08:23:40;1.00;75.40
1812;DHT22;904;47.814;11.134;2022-12-11T08:26:16;1.00;75.50
1812;DHT22;904;47.814;11.134;2022-12-11T08:28:45;1.10;73.50
1812;DHT22;904;47.814;11.134;2022-12-11T08:31:14;1.10;73.70
1812;DHT22;904;47.814;11.134;2022-12-11T08:33:43;1.20;74.30
1812;DHT22;904;47.814;11.134;2022-12-11T08:36:18;1.40;74.70
1812;DHT22;904;47.814;11.134;2022-12-11T08:38:47;1.70;74.10
1812;DHT22;904;47.814;11.134;2022-12-11T08:41:18;2.00;74.10
1812;DHT22;904;47.814;11.134;2022-12-11T08:43:46;2.50;72.80
1812;DHT22;904;47.814;11.134;2022-12-11T08:46:14;3.10;66.40
1812;DHT22;904;47.814;11.134;2022-12-11T08:48:42;3.60;67.70
1812;DHT22;904;47.814;11.134;2022-12-11T08:51:14;3.80;64.30
1812;DHT22;904;47.814;11.134;2022-12-11T08:53:43;3.70;58.20
1812;DHT22;904;47.814;11.134;2022-12-11T08:56:12;3.30;58.80
1812;DHT22;904;47.814;11.134;2022-12-11T08:58:42;3.10;58.90
1812;DHT22;904;47.814;11.134;2022-12-11T09:01:15;2.70;60.00
1812;DHT22;904;47.814;11.134;2022-12-11T09:03:44;2.60;62.70
1812;DHT22;904;47.814;11.134;2022-12-11T09:06:14;2.70;61.50
1812;DHT22;904;47.814;11.134;2022-12-11T09:08:43;2.70;62.60
1812;DHT22;904;47.814;11.134;2022-12-11T09:11:13;2.90;62.80
1812;DHT22;904;47.814;11.134;2022-12-11T09:13:43;3.00;62.60
1812;DHT22;904;47.814;11.134;2022-12-11T09:16:12;3.30;60.70
1812;DHT22;904;47.814;11.134;2022-12-11T09:18:40;3.50;61.60
1812;DHT22;904;47.814;11.134;2022-12-11T09:21:09;3.60;61.30
1812;DHT22;904;47.814;11.134;2022-12-11T09:23:38;3.50;59.20
1812;DHT22;904;47.814;11.134;2022-12-11T09:26:07;3.60;60.10
1812;DHT22;904;47.814;11.134;2022-12-11T09:28:36;3.80;59.90
1812;DHT22;904;47.814;11.134;2022-12-11T09:31:09;3.90;59.40
1812;DHT22;904;47.814;11.134;2022-12-11T09:33:36;3.80;59.20
1812;DHT22;904;47.814;11.134;2022-12-11T09:36:07;3.60;58.70
1812;DHT22;904;47.814;11.134;2022-12-11T09:38:35;3.60;59.80
1812;DHT22;904;47.814;11.134;2022-12-11T09:41:20;3.70;59.10
1812;DHT22;904;47.814;11.134;2022-12-11T09:43:58;3.70;58.50
1812;DHT22;904;47.814;11.134;2022-12-11T09:46:34;3.70;59.30
1812;DHT22;904;47.814;11.134;2022-12-11T09:49:03;4.20;59.40
1812;DHT22;904;47.814;11.134;2022-12-11T09:51:44;5.00;61.10
1812;DHT22;904;47.814;11.134;2022-12-11T09:54:20;5.90;57.90
1812;DHT22;904;47.814;11.134;2022-12-11T09:56:51;6.30;54.40
1812;DHT22;904;47.814;11.134;2022-12-11T09:59:26;6.50;53.70
1812;DHT22;904;47.814;11.134;2022-12-11T10:02:08;6.80;54.00
1812;DHT22;904;47.814;11.134;2022-12-11T10:04:44;7.40;54.60
1812;DHT22;904;47.814;11.134;2022-12-11T10:07:25;7.70;51.10
1812;DHT22;904;47.814;11.134;2022-12-11T10:10:01;8.00;50.10
1812;DHT22;904;47.814;11.134;2022-12-11T10:12:36;8.20;49.50
1812;DHT22;904;47.814;11.134;2022-12-11T10:15:22;8.50;47.70
1812;DHT22;904;47.814;11.134;2022-12-11T10:17:57;8.80;46.80
1812;DHT22;904;47.814;11.134;2022-12-11T10:20:28;9.00;46.10
1812;DHT22;904;47.814;11.134;2022-12-11T10:23:00;9.30;46.40
1812;DHT22;904;47.814;11.134;2022-12-11T10:25:31;9.50;44.60
1812;DHT22;904;47.814;11.134;2022-12-11T10:28:07;9.70;42.90
1812;DHT22;904;47.814;11.134;2022-12-11T10:30:37;10.00;42.20
1812;DHT22;904;47.814;11.134;2022-12-11T10:33:16;10.10;40.20
1812;DHT22;904;47.814;11.134;2022-12-11T10:35:49;10.00;40.00
1812;DHT22;904;47.814;11.134;2022-12-11T10:38:23;10.00;38.70
1812;DHT22;904;47.814;11.134;2022-12-11T10:40:55;10.00;39.00
1812;DHT22;904;47.814;11.134;2022-12-11T10:43:33;10.00;38.40
1812;DHT22;904;47.814;11.134;2022-12-11T10:46:00;9.80;39.00
1812;DHT22;904;47.814;11.134;2022-12-11T10:48:29;9.50;39.40
1812;DHT22;904;47.814;11.134;2022-12-11T10:50:59;9.60;39.90
1812;DHT22;904;47.814;11.134;2022-12-11T10:53:27;9.60;40.00
1812;DHT22;904;47.814;11.134;2022-12-11T10:55:55;9.80;38.80
1812;DHT22;904;47.814;11.134;2022-12-11T10:58:26;9.60;39.20
1812;DHT22;904;47.814;11.134;2022-12-11T11:01:05;9.60;39.20
1812;DHT22;904;47.814;11.134;2022-12-11T11:03:53;9.40;39.10
1812;DHT22;904;47.814;11.134;2022-12-11T11:06:22;9.50;39.60
1812;DHT22;904;47.814;11.134;2022-12-11T11:08:55;9.60;39.50
1812;DHT22;904;47.814;11.134;2022-12-11T11:11:28;9.50;39.40
1812;DHT22;904;47.814;11.134;2022-12-11T11:14:11;9.50;38.60
1812;DHT22;904;47.814;11.134;2022-12-11T11:16:41;9.80;38.60
1812;DHT22;904;47.814;11.134;2022-12-11T11:19:20;9.80;38.00
1812;DHT22;904;47.814;11.134;2022-12-11T11:22:00;10.20;37.10
1812;DHT22;904;47.814;11.134;2022-12-11T11:24:32;10.30;35.90
1812;DHT22;904;47.814;11.134;2022-12-11T11:27:02;10.60;36.10
1812;DHT22;904;47.814;11.134;2022-12-11T11:29:31;11.00;33.80
1812;DHT22;904;47.814;11.134;2022-12-11T11:32:11;10.70;33.30
1812;DHT22;904;47.814;11.134;2022-12-11T11:34:42;10.20;33.60
1812;DHT22;904;47.814;11.134;2022-12-11T11:37:23;10.10;33.40
1812;DHT22;904;47.814;11.134;2022-12-11T11:39:58;9.90;34.60
1812;DHT22;904;47.814;11.134;2022-12-11T11:42:39;9.70;35.00
1812;DHT22;904;47.814;11.134;2022-12-11T11:45:16;9.50;35.40
1812;DHT22;904;47.814;11.134;2022-12-11T11:47:53;9.30;35.90
1812;DHT22;904;47.814;11.134;2022-12-11T11:50:28;9.40;35.60
1812;DHT22;904;47.814;11.134;2022-12-11T11:53:02;9.20;35.50
1812;DHT22;904;47.814;11.134;2022-12-11T11:55:37;9.00;36.60
1812;DHT22;904;47.814;11.134;2022-12-11T11:58:11;8.60;35.70
1812;DHT22;904;47.814;11.134;2022-12-11T12:00:39;8.70;37.70
1812;DHT22;904;47.814;11.134;2022-12-11T12:03:10;8.70;36.60
1812;DHT22;904;47.814;11.134;2022-12-11T12:05:47;8.50;37.70
1812;DHT22;904;47.814;11.134;2022-12-11T12:08:22;8.60;39.40
1812;DHT22;904;47.814;11.134;2022-12-11T12:10:58;8.50;38.60
1812;DHT22;904;47.814;11.134;2022-12-11T12:13:35;8.30;40.20
1812;DHT22;904;47.814;11.134;2022-12-11T12:16:14;8.40;40.70
1812;DHT22;904;47.814;11.134;2022-12-11T12:18:51;8.50;38.80
1812;DHT22;904;47.814;11.134;2022-12-11T12:21:29;8.40;36.90
1812;DHT22;904;47.814;11.134;2022-12-11T12:24:23;8.50;37.60
1812;DHT22;904;47.814;11.134;2022-12-11T12:27:00;9.10;39.80
1812;DHT22;904;47.814;11.134;2022-12-11T12:29:38;9.70;38.20
1812;DHT22;904;47.814;11.134;2022-12-11T12:32:16;10.00;36.20
1812;DHT22;904;47.814;11.134;2022-12-11T12:34:59;9.90;36.60
1812;DHT22;904;47.814;11.134;2022-12-11T12:37:42;9.70;36.60
1812;DHT22;904;47.814;11.134;2022-12-11T12:40:22;9.30;37.10
1812;DHT22;904;47.814;11.134;2022-12-11T12:43:05;8.70;37.70
1812;DHT22;904;47.814;11.134;2022-12-11T12:45:41;8.50;38.10
1812;DHT22;904;47.814;11.134;2022-12-11T12:48:09;8.00;38.50
1812;DHT22;904;47.814;11.134;2022-12-11T12:50:43;7.70;39.60
1812;DHT22;904;47.814;11.134;2022-12-11T12:53:19;7.30;40.50
1812;DHT22;904;47.814;11.134;2022-12-11T12:55:48;7.10;42.30
1812;DHT22;904;47.814;11.134;2022-12-11T12:58:25;7.00;42.90
1812;DHT22;904;47.814;11.134;2022-12-11T13:00:53;7.00;43.90
1812;DHT22;904;47.814;11.134;2022-12-11T13:03:22;7.10;43.10
1812;DHT22;904;47.814;11.134;2022-12-11T13:05:57;7.10;42.20
1812;DHT22;904;47.814;11.134;2022-12-11T13:08:29;6.90;43.10
1812;DHT22;904;47.814;11.134;2022-12-11T13:11:01;6.90;43.00
1812;DHT22;904;47.814;11.134;2022-12-11T13:13:33;6.60;42.90
1812;DHT22;904;47.814;11.134;2022-12-11T13:16:24;6.40;43.30
1812;DHT22;904;47.814;11.134;2022-12-11T13:18:54;6.20;44.10
1812;DHT22;904;47.814;11.134;2022-12-11T13:21:32;6.10;44.20
1812;DHT22;904;47.814;11.134;2022-12-11T13:24:16;5.90;44.70
1812;DHT22;904;47.814;11.134;2022-12-11T13:26:43;5.80;45.50
1812;DHT22;904;47.814;11.134;2022-12-11T13:29:32;5.60;45.00
1812;DHT22;904;47.814;11.134;2022-12-11T13:32:02;5.40;45.10
1812;DHT22;904;47.814;11.134;2022-12-11T13:34:31;5.20;46.00
1812;DHT22;904;47.814;11.134;2022-12-11T13:37:00;5.00;45.70
1812;DHT22;904;47.814;11.134;2022-12-11T13:39:32;4.90;46.30
1812;DHT22;904;47.814;11.134;2022-12-11T13:42:02;4.70;46.40
1812;DHT22;904;47.814;11.134;2022-12-11T13:44:33;4.60;47.20
1812;DHT22;904;47.814;11.134;2022-12-11T13:47:05;4.40;47.10
1812;DHT22;904;47.814;11.134;2022-12-11T13:49:37;4.30;48.10
1812;DHT22;904;47.814;11.134;2022-12-11T13:52:20;4.20;47.90
1812;DHT22;904;47.814;11.134;2022-12-11T13:54:51;4.10;48.20
1812;DHT22;904;47.814;11.134;2022-12-11T13:57:20;4.00;47.90
1812;DHT22;904;47.814;11.134;2022-12-11T13:59:50;3.90;48.50
1812;DHT22;904;47.814;11.134;2022-12-11T14:02:20;3.80;48.80
1812;DHT22;904;47.814;11.134;2022-12-11T14:04:50;3.60;49.20
1812;DHT22;904;47.814;11.134;2022-12-11T14:07:26;3.50;50.00
1812;DHT22;904;47.814;11.134;2022-12-11T14:09:59;3.50;50.20
1812;DHT22;904;47.814;11.134;2022-12-11T14:12:31;3.40;50.50
1812;DHT22;904;47.814;11.134;2022-12-11T14:14:59;3.40;51.00
1812;DHT22;904;47.814;11.134;2022-12-11T14:17:31;3.40;51.40
1812;DHT22;904;47.814;11.134;2022-12-11T14:20:04;3.50;51.40
1812;DHT22;904;47.814;11.134;2022-12-11T14:22:43;3.60;51.70
1812;DHT22;904;47.814;11.134;2022-12-11T14:25:21;3.70;51.90
1812;DHT22;904;47.814;11.134;2022-12-11T14:27:54;3.80;51.20
1812;DHT22;904;47.814;11.134;2022-12-11T14:30:24;3.90;51.20
1812;DHT22;904;47.814;11.134;2022-12-11T14:32:54;3.80;51.00
1812;DHT22;904;47.814;11.134;2022-12-11T14:35:25;3.70;50.80
1812;DHT22;904;47.814;11.134;2022-12-11T14:37:54;3.60;49.80
1812;DHT22;904;47.814;11.134;2022-12-11T14:40:33;3.40;49.80
1812;DHT22;904;47.814;11.134;2022-12-11T14:43:08;3.30;49.90
1812;DHT22;904;47.814;11.134;2022-12-11T14:45:44;3.20;50.40
1812;DHT22;904;47.814;11.134;2022-12-11T14:48:18;3.00;50.40
1812;DHT22;904;47.814;11.134;2022-12-11T14:50:51;2.90;50.40
1812;DHT22;904;47.814;11.134;2022-12-11T14:53:22;2.60;50.80
1812;DHT22;904;47.814;11.134;2022-12-11T14:56:16;2.40;50.50
1812;DHT22;904;47.814;11.134;2022-12-11T14:58:50;2.10;50.40
1812;DHT22;904;47.814;11.134;2022-12-11T15:01:22;1.80;51.40
1812;DHT22;904;47.814;11.134;2022-12-11T15:04:02;1.50;52.00
1812;DHT22;904;47.814;11.134;2022-12-11T15:06:34;1.30;52.80
1812;DHT22;904;47.814;11.134;2022-12-11T15:09:19;1.10;52.80
1812;DHT22;904;47.814;11.134;2022-12-11T15:11:50;1.00;53.90
1812;DHT22;904;47.814;11.134;2022-12-11T15:14:19;0.90;54.30
1812;DHT22;904;47.814;11.134;2022-12-11T15:16:50;0.80;54.70
1812;DHT22;904;47.814;11.134;2022-12-11T15:19:23;0.70;54.90
1812;DHT22;904;47.814;11.134;2022-12-11T15:21:54;0.60;55.20
1812;DHT22;904;47.814;11.134;2022-12-11T15:24:32;0.60;55.20
1812;DHT22;904;47.814;11.134;2022-12-11T15:27:04;0.50;56.00
1812;DHT22;904;47.814;11.134;2022-12-11T15:29:33;0.40;56.10
1812;DHT22;904;47.814;11.134;2022-12-11T15:32:12;0.40;57.00
1812;DHT22;904;47.814;11.134;2022-12-11T15:34:45;0.30;57.00
1812;DHT22;904;47.814;11.134;2022-12-11T15:37:22;0.30;57.30
1812;DHT22;904;47.814;11.134;2022-12-11T15:39:51;0.20;57.90
1812;DHT22;904;47.814;11.134;2022-12-11T15:42:25;0.20;58.60
1812;DHT22;904;47.814;11.134;2022-12-11T15:44:53;0.10;58.70
1812;DHT22;904;47.814;11.134;2022-12-11T15:47:30;0.00;59.00
1812;DHT22;904;47.814;11.134;2022-12-11T15:49:59;0.00;59.50
1812;DHT22;904;47.814;11.134;2022-12-11T15:52:27;0.00;59.30
1812;DHT22;904;47.814;11.134;2022-12-11T15:54:59;0.00;59.40
1812;DHT22;904;47.814;11.134;2022-12-11T15:57:28;-0.10;59.60
1812;DHT22;904;47.814;11.134;2022-12-11T15:59:55;-0.20;60.50
1812;DHT22;904;47.814;11.134;2022-12-11T16:02:23;-0.20;60.70
1812;DHT22;904;47.814;11.134;2022-12-11T16:04:54;-0.20;61.90
1812;DHT22;904;47.814;11.134;2022-12-11T16:07:23;-0.20;63.00
1812;DHT22;904;47.814;11.134;2022-12-11T16:09:51;-0.30;63.20
1812;DHT22;904;47.814;11.134;2022-12-11T16:12:22;-0.30;63.00
1812;DHT22;904;47.814;11.134;2022-12-11T16:14:50;-0.30;62.50
1812;DHT22;904;47.814;11.134;2022-12-11T16:17:23;-0.20;63.00
1812;DHT22;904;47.814;11.134;2022-12-11T16:19:52;-0.20;63.60
1812;DHT22;904;47.814;11.134;2022-12-11T16:22:20;-0.10;63.90
1812;DHT22;904;47.814;11.134;2022-12-11T16:24:51;-0.10;63.80
1812;DHT22;904;47.814;11.134;2022-12-11T16:27:26;-0.20;64.80
1812;DHT22;904;47.814;11.134;2022-12-11T16:29:55;-0.20;65.80
1812;DHT22;904;47.814;11.134;2022-12-11T16:32:22;-0.20;66.00
1812;DHT22;904;47.814;11.134;2022-12-11T16:34:57;-0.30;66.30
1812;DHT22;904;47.814;11.134;2022-12-11T16:37:25;-0.20;66.10
1812;DHT22;904;47.814;11.134;2022-12-11T16:39:52;-0.20;66.20
1812;DHT22;904;47.814;11.134;2022-12-11T16:42:20;-0.10;66.40
1812;DHT22;904;47.814;11.134;2022-12-11T16:44:49;-0.20;66.30
1812;DHT22;904;47.814;11.134;2022-12-11T16:47:18;-0.20;67.10